RJCN

Nakashibetsu Airport

Airport
ICAO code
RJCN
IATA Code
SHB
Summary
ICAO Region
APAC
ICAO Territory
Location

Nakashibetsu, Hokkaidō

Serving
Nakashibetsu
Elevation
214 ft
Coordinates
43° 34' 24" N , 144° 57' 24" E
KCC
Metar
Observation
RJCN 292330Z 23004KT 9999 FEW020 M16/M19 Q1012
Station
Nakashibetsu Airport
Date/Time
2023-01-29 23:30:00
Wind direction
230°
Wind speed
04 kts
Lowest cloud amount
few clouds
Temperature
-16°C
Dew point
-19°C
Humidity
77%
QNH
1012 hPa
Weather condition
n/a

Airport located 2 nm from Nakashibetsu, Hokkaidō, Japan.

Climatology

Humid continental climate (Köppen climate classification Dfb)

Runways

Designator Length Width Surface Rops
8/26 1999 46 ASP No/No

Airport map

Aerial View

SKYbrary Partners:

Safety knowledge contributed by: